createdAt,value
2023-02-24T00:02:04.232Z,112.88
2023-02-24T00:04:35.001Z,107.58
2023-02-24T00:07:03.456Z,107.78
2023-02-24T00:09:33.635Z,114.62
2023-02-24T00:12:09.261Z,109.75
2023-02-24T00:14:38.774Z,113.85
2023-02-24T00:19:58.559Z,107.95
2023-02-24T00:22:26.304Z,116.88
2023-02-24T00:24:54.753Z,116.85
2023-02-24T00:27:24.097Z,114.08
2023-02-24T00:29:51.899Z,118.37
2023-02-24T00:32:20.320Z,113.60
2023-02-24T00:34:48.881Z,112.32
2023-02-24T00:37:17.212Z,114.20
2023-02-24T00:39:46.122Z,107.50
2023-02-24T00:42:15.306Z,113.77
2023-02-24T00:44:47.467Z,106.20
2023-02-24T00:49:46.628Z,103.22
2023-02-24T00:52:18.014Z,104.60
2023-02-24T00:54:48.141Z,102.42
2023-02-24T00:57:17.982Z,97.20
2023-02-24T00:59:52.700Z,99.05
2023-02-24T01:02:20.964Z,97.50
2023-02-24T01:04:50.197Z,97.88
2023-02-24T01:07:18.069Z,102.32
2023-02-24T01:09:45.919Z,106.10
2023-02-24T01:12:35.441Z,112.55
2023-02-24T01:15:17.034Z,110.78
2023-02-24T01:17:45.473Z,105.45
2023-02-24T01:20:17.297Z,111.75
2023-02-24T01:22:53.723Z,110.35
2023-02-24T01:25:21.612Z,102.02
2023-02-24T01:27:49.630Z,119.90
2023-02-24T01:30:18.705Z,115.88
2023-02-24T01:32:48.672Z,118.42
2023-02-24T01:35:19.831Z,118.55
2023-02-24T01:37:49.596Z,122.45
2023-02-24T01:40:19.708Z,127.58
2023-02-24T01:42:47.887Z,124.70
2023-02-24T01:45:29.698Z,121.02
2023-02-24T01:48:00.845Z,111.37
2023-02-24T01:50:29.581Z,115.10
2023-02-24T01:53:04.110Z,119.20
2023-02-24T01:55:38.152Z,112.83
2023-02-24T01:58:09.894Z,104.95
2023-02-24T02:00:42.253Z,98.80
2023-02-24T02:03:26.517Z,96.05
2023-02-24T02:06:04.219Z,103.22
2023-02-24T02:08:33.530Z,96.42
2023-02-24T02:11:05.006Z,99.67
2023-02-24T02:13:41.589Z,112.72
2023-02-24T02:16:31.565Z,108.42
2023-02-24T02:19:08.862Z,110.00
2023-02-24T02:21:49.313Z,112.40
2023-02-24T02:24:35.682Z,105.58
2023-02-24T02:27:28.529Z,110.42
2023-02-24T02:30:25.476Z,106.50
2023-02-24T02:33:05.001Z,115.22
2023-02-24T02:36:00.984Z,112.17
2023-02-24T02:38:35.502Z,118.05
2023-02-24T02:41:16.221Z,110.75
2023-02-24T02:43:53.968Z,115.22
2023-02-24T02:46:41.866Z,117.20
2023-02-24T02:49:16.419Z,108.97
2023-02-24T02:51:52.977Z,113.80
2023-02-24T02:54:27.673Z,114.15
2023-02-24T02:59:31.803Z,118.08
2023-02-24T03:02:21.062Z,109.32
2023-02-24T03:04:54.308Z,108.17
2023-02-24T03:07:25.733Z,118.17
2023-02-24T03:09:57.580Z,107.05
2023-02-24T03:12:29.953Z,112.45
2023-02-24T03:15:02.357Z,110.03
2023-02-24T03:17:35.104Z,110.53
2023-02-24T03:23:17.694Z,108.83
2023-02-24T03:25:49.404Z,109.15
2023-02-24T03:28:23.910Z,113.85
2023-02-24T03:30:59.076Z,118.53
2023-02-24T03:33:30.615Z,107.20
2023-02-24T03:36:00.620Z,123.40
2023-02-24T03:38:31.429Z,113.77
2023-02-24T03:41:02.595Z,117.97
2023-02-24T03:43:35.247Z,110.45
2023-02-24T03:46:06.190Z,120.02
2023-02-24T03:48:37.637Z,113.97
2023-02-24T03:51:05.920Z,113.83
2023-02-24T03:54:03.045Z,115.75
2023-02-24T03:56:47.374Z,122.20
2023-02-24T03:59:19.640Z,119.28
2023-02-24T04:01:55.884Z,111.97
2023-02-24T04:04:49.048Z,108.95
2023-02-24T04:07:28.640Z,116.70
2023-02-24T04:10:13.145Z,102.65
2023-02-24T04:12:52.524Z,108.20
2023-02-24T04:15:24.229Z,103.65
2023-02-24T04:20:36.757Z,111.83
2023-02-24T04:23:09.034Z,106.12
2023-02-24T04:25:38.793Z,120.97
2023-02-24T04:28:08.559Z,121.87
2023-02-24T04:30:43.194Z,119.08
2023-02-24T04:33:12.278Z,123.33
2023-02-24T04:35:41.010Z,122.15
2023-02-24T04:38:09.084Z,116.53
2023-02-24T04:40:40.723Z,118.08
2023-02-24T04:43:09.504Z,116.90
2023-02-24T04:45:39.582Z,130.72
2023-02-24T04:48:09.972Z,120.92
2023-02-24T04:50:38.640Z,120.10
2023-02-24T04:53:13.208Z,116.08
2023-02-24T04:55:50.496Z,120.50
2023-02-24T04:58:21.537Z,115.40
2023-02-24T05:00:58.889Z,114.57
2023-02-24T05:03:29.946Z,112.45
2023-02-24T05:06:00.565Z,118.77
2023-02-24T05:08:30.408Z,120.08
2023-02-24T05:11:19.373Z,117.55
2023-02-24T05:13:47.421Z,116.33
2023-02-24T05:16:18.238Z,123.33
2023-02-24T05:18:46.542Z,120.47
2023-02-24T05:21:36.803Z,109.92
2023-02-24T05:24:07.535Z,118.50
2023-02-24T05:26:38.236Z,116.73
2023-02-24T05:29:07.543Z,122.78
2023-02-24T05:31:49.587Z,124.07
2023-02-24T05:34:17.526Z,119.87
2023-02-24T05:36:46.321Z,124.05
2023-02-24T05:39:15.845Z,115.40
2023-02-24T05:41:43.797Z,122.72
2023-02-24T05:44:14.552Z,117.33
2023-02-24T05:46:45.341Z,125.00
2023-02-24T05:49:21.224Z,127.45
2023-02-24T05:51:56.741Z,126.75
2023-02-24T05:54:30.032Z,120.22
2023-02-24T05:57:03.847Z,120.92
2023-02-24T05:59:33.097Z,123.28
2023-02-24T06:02:09.302Z,125.65
2023-02-24T06:04:40.267Z,118.10
2023-02-24T06:07:14.220Z,123.65
2023-02-24T06:09:43.440Z,119.97
2023-02-24T06:12:12.395Z,122.45
2023-02-24T06:14:40.137Z,124.45
2023-02-24T06:17:08.919Z,113.17
2023-02-24T06:19:36.971Z,118.13
2023-02-24T06:22:05.603Z,113.25
2023-02-24T06:24:33.857Z,110.12
2023-02-24T06:27:03.915Z,110.68
2023-02-24T06:29:32.036Z,107.30
2023-02-24T06:32:00.487Z,109.70
2023-02-24T06:37:15.588Z,103.10
2023-02-24T06:39:45.424Z,131.00
2023-02-24T06:42:14.082Z,101.75
2023-02-24T06:44:43.582Z,109.90
2023-02-24T06:47:13.557Z,118.82
2023-02-24T06:49:43.665Z,119.95
2023-02-24T06:52:12.150Z,106.52
2023-02-24T06:54:43.293Z,114.00
2023-02-24T06:57:12.611Z,116.33
2023-02-24T06:59:41.632Z,120.65
2023-02-24T07:02:13.847Z,96.42
2023-02-24T07:04:44.843Z,98.17
2023-02-24T07:07:17.257Z,99.37
2023-02-24T07:09:48.524Z,100.75
2023-02-24T07:12:17.931Z,103.72
2023-02-24T07:14:48.246Z,95.62
2023-02-24T07:17:19.088Z,103.38
2023-02-24T07:22:33.335Z,104.25
2023-02-24T07:25:02.129Z,102.25
2023-02-24T07:27:30.459Z,100.18
2023-02-24T07:29:59.910Z,103.90
2023-02-24T07:32:28.134Z,119.08
2023-02-24T07:34:55.796Z,117.08
2023-02-24T07:37:25.609Z,119.25
2023-02-24T07:39:53.415Z,110.97
2023-02-24T07:42:21.240Z,123.80
2023-02-24T07:44:51.844Z,115.10
2023-02-24T07:47:23.688Z,128.07
2023-02-24T07:49:52.053Z,124.78
2023-02-24T07:52:19.833Z,128.97
2023-02-24T07:54:50.848Z,131.07
2023-02-24T07:57:19.079Z,148.68
2023-02-24T07:59:48.058Z,187.05
2023-02-24T08:02:17.174Z,123.70
2023-02-24T08:04:47.798Z,122.35
2023-02-24T08:07:16.259Z,125.10
2023-02-24T08:09:51.887Z,117.62
2023-02-24T08:12:30.366Z,115.95
2023-02-24T08:15:03.043Z,112.95
2023-02-24T08:17:30.964Z,123.13
2023-02-24T08:20:15.867Z,119.08
2023-02-24T08:25:18.321Z,121.02
2023-02-24T08:28:05.139Z,117.93
2023-02-24T08:30:25.754Z,119.97
2023-02-24T08:32:57.360Z,121.35
2023-02-24T08:35:30.385Z,120.13
2023-02-24T08:38:04.969Z,120.55
2023-02-24T08:40:37.666Z,129.75
2023-02-24T08:43:19.892Z,121.40
2023-02-24T08:45:54.216Z,126.40
2023-02-24T08:48:38.102Z,120.30
2023-02-24T08:51:16.324Z,124.53
2023-02-24T08:53:47.329Z,127.15
2023-02-24T08:56:18.431Z,123.13
2023-02-24T08:58:49.316Z,128.20
2023-02-24T09:01:25.808Z,114.88
2023-02-24T09:03:57.922Z,113.35
2023-02-24T09:06:38.659Z,110.45
2023-02-24T09:09:18.811Z,115.75
2023-02-24T09:11:55.984Z,107.35
2023-02-24T09:14:28.932Z,107.20
2023-02-24T09:17:11.981Z,114.28
2023-02-24T09:19:53.519Z,117.40
2023-02-24T09:22:33.515Z,116.17
2023-02-24T09:25:21.933Z,105.17
2023-02-24T09:27:56.509Z,116.70
2023-02-24T09:30:39.155Z,119.35
2023-02-24T09:33:18.542Z,115.17
2023-02-24T09:35:56.460Z,115.97
2023-02-24T09:38:26.503Z,128.05
2023-02-24T09:40:54.365Z,125.67
2023-02-24T09:43:25.913Z,124.42
2023-02-24T09:46:00.384Z,122.47
2023-02-24T09:51:05.749Z,150.50
2023-02-24T09:53:46.957Z,146.50
2023-02-24T09:59:17.791Z,124.85
2023-02-24T10:02:13.669Z,117.22
2023-02-24T10:05:02.013Z,122.87
2023-02-24T10:07:37.928Z,120.50
2023-02-24T10:10:30.680Z,139.77
2023-02-24T10:13:22.218Z,128.78
2023-02-24T10:15:57.848Z,125.27
2023-02-24T10:18:48.828Z,130.05
2023-02-24T10:21:24.852Z,130.27
2023-02-24T10:23:59.937Z,122.78
2023-02-24T10:26:36.980Z,129.00
2023-02-24T10:29:22.000Z,127.65
2023-02-24T10:31:55.015Z,128.32
2023-02-24T10:34:25.602Z,129.70
2023-02-24T10:36:54.122Z,126.18
2023-02-24T10:39:25.942Z,120.77
2023-02-24T10:42:01.530Z,128.42
2023-02-24T10:44:36.862Z,127.58
2023-02-24T10:47:30.832Z,129.90
2023-02-24T10:50:05.638Z,132.90
2023-02-24T10:55:14.771Z,119.02
2023-02-24T10:57:58.647Z,126.72
2023-02-24T11:00:22.857Z,123.42
2023-02-24T11:03:01.036Z,121.75
2023-02-24T11:05:46.438Z,129.95
2023-02-24T11:08:36.013Z,130.80
2023-02-24T11:11:29.798Z,142.05
2023-02-24T11:14:18.293Z,127.82
2023-02-24T11:17:09.558Z,121.42
2023-02-24T11:19:50.183Z,121.77
2023-02-24T11:22:28.076Z,126.05
2023-02-24T11:24:55.902Z,132.25
2023-02-24T11:27:26.640Z,125.00
2023-02-24T11:30:08.017Z,127.15
2023-02-24T11:33:01.836Z,112.35
2023-02-24T11:35:41.074Z,120.87
2023-02-24T11:38:23.736Z,122.90
2023-02-24T11:40:55.126Z,122.62
2023-02-24T11:43:26.769Z,110.03
2023-02-24T11:46:19.929Z,117.90
2023-02-24T11:48:56.022Z,115.08
2023-02-24T11:51:37.220Z,115.97
2023-02-24T11:54:09.132Z,117.57
2023-02-24T11:56:46.199Z,117.47
2023-02-24T11:59:39.395Z,119.93
2023-02-24T12:02:30.480Z,97.35
2023-02-24T12:05:07.777Z,104.38
2023-02-24T12:07:39.009Z,114.82
2023-02-24T12:10:22.901Z,110.20
2023-02-24T12:13:28.775Z,103.38
2023-02-24T12:16:09.945Z,109.70
2023-02-24T12:18:41.499Z,109.90
2023-02-24T12:21:44.298Z,112.45
2023-02-24T12:24:17.301Z,114.45
2023-02-24T12:27:08.294Z,120.28
2023-02-24T12:29:54.866Z,117.72
2023-02-24T12:32:48.341Z,112.68
2023-02-24T12:35:21.254Z,113.68
2023-02-24T12:38:12.811Z,117.53
2023-02-24T12:40:57.322Z,109.87
2023-02-24T12:43:35.061Z,116.77
2023-02-24T12:46:10.107Z,111.80
2023-02-24T12:48:41.601Z,101.33
2023-02-24T12:51:28.760Z,113.30
2023-02-24T12:54:09.140Z,114.55
2023-02-24T12:56:59.085Z,109.45
2023-02-24T12:59:30.909Z,99.10
2023-02-24T13:02:25.516Z,103.10
2023-02-24T13:05:06.013Z,105.92
2023-02-24T13:07:44.962Z,102.30
2023-02-24T13:10:30.972Z,106.83
2023-02-24T13:13:11.881Z,97.97
2023-02-24T13:15:43.278Z,100.67
2023-02-24T13:18:12.075Z,97.78
2023-02-24T13:20:41.882Z,94.05
2023-02-24T13:23:22.943Z,99.47
2023-02-24T13:25:53.196Z,92.88
2023-02-24T13:28:25.257Z,98.37
2023-02-24T13:31:04.716Z,96.22
2023-02-24T13:33:35.922Z,96.28
2023-02-24T13:36:10.556Z,92.35
2023-02-24T13:38:42.483Z,102.67
2023-02-24T13:41:32.672Z,94.45
2023-02-24T13:44:03.545Z,101.53
2023-02-24T13:46:38.424Z,94.55
2023-02-24T13:49:10.270Z,88.97
2023-02-24T13:51:48.519Z,93.47
2023-02-24T13:54:32.138Z,93.33
2023-02-24T13:57:24.204Z,95.25
2023-02-24T14:00:11.363Z,91.72
2023-02-24T14:02:44.486Z,91.20
2023-02-24T14:05:16.399Z,101.02
2023-02-24T14:07:48.562Z,96.90
2023-02-24T14:10:20.607Z,94.47
2023-02-24T14:12:50.041Z,95.53
2023-02-24T14:15:24.682Z,86.90
2023-02-24T14:18:01.642Z,93.75
2023-02-24T14:20:35.688Z,91.60
2023-02-24T14:23:04.274Z,94.87
2023-02-24T14:25:38.897Z,84.60
2023-02-24T14:28:06.956Z,84.52
2023-02-24T14:30:39.175Z,83.15
2023-02-24T14:33:11.002Z,82.12
2023-02-24T14:35:49.608Z,86.45
2023-02-24T14:38:41.155Z,96.08
2023-02-24T14:41:28.150Z,94.97
2023-02-24T14:43:56.761Z,84.55
2023-02-24T14:46:26.127Z,80.25
2023-02-24T14:48:56.439Z,78.40
2023-02-24T14:51:32.282Z,79.92
2023-02-24T14:54:03.827Z,77.45
2023-02-24T14:56:34.170Z,74.70
2023-02-24T14:59:18.071Z,73.83
2023-02-24T15:01:54.942Z,68.65
2023-02-24T15:04:38.161Z,74.22
2023-02-24T15:07:09.619Z,71.12
2023-02-24T15:09:43.868Z,69.07
2023-02-24T15:12:15.833Z,69.90
2023-02-24T15:14:47.478Z,77.47
2023-02-24T15:17:18.428Z,72.40
2023-02-24T15:19:48.266Z,75.40
2023-02-24T15:22:29.087Z,74.27
2023-02-24T15:25:10.526Z,75.10
2023-02-24T15:27:40.552Z,82.22
2023-02-24T15:30:12.604Z,73.42
2023-02-24T15:32:40.720Z,75.65
2023-02-24T15:35:12.428Z,73.00
2023-02-24T15:37:46.694Z,74.95
2023-02-24T15:40:24.151Z,82.25
2023-02-24T15:43:00.916Z,78.83
2023-02-24T15:45:34.947Z,67.72
2023-02-24T15:48:05.476Z,68.15
2023-02-24T15:50:34.843Z,69.07
2023-02-24T15:53:05.041Z,70.47
2023-02-24T15:55:34.055Z,71.33
2023-02-24T15:58:04.026Z,69.27
2023-02-24T16:00:35.103Z,73.70
2023-02-24T16:03:22.862Z,72.95
2023-02-24T16:05:50.800Z,77.00
2023-02-24T16:08:20.649Z,78.20
2023-02-24T16:10:50.219Z,80.55
2023-02-24T16:13:21.501Z,77.55
2023-02-24T16:15:51.092Z,73.70
2023-02-24T16:18:24.336Z,80.87
2023-02-24T16:20:57.344Z,76.12
2023-02-24T16:23:27.367Z,76.75
2023-02-24T16:26:00.040Z,93.37
2023-02-24T16:28:28.009Z,79.10
2023-02-24T16:30:56.215Z,80.25
2023-02-24T16:33:24.665Z,82.57
2023-02-24T16:35:55.604Z,86.37
2023-02-24T16:38:27.136Z,89.35
2023-02-24T16:40:55.493Z,85.57
2023-02-24T16:43:25.198Z,83.95
2023-02-24T16:45:57.098Z,83.62
2023-02-24T16:48:27.037Z,76.12
2023-02-24T16:50:55.508Z,85.05
2023-02-24T16:53:27.570Z,83.25
2023-02-24T16:55:55.628Z,86.40
2023-02-24T16:58:25.104Z,85.65
2023-02-24T17:00:56.562Z,87.92
2023-02-24T17:03:27.350Z,86.72
2023-02-24T17:05:58.936Z,85.92
2023-02-24T17:08:27.980Z,87.45
2023-02-24T17:10:56.448Z,93.78
2023-02-24T17:13:25.102Z,89.90
2023-02-24T17:15:57.530Z,87.10
2023-02-24T17:18:26.871Z,93.92
2023-02-24T17:20:54.436Z,88.05
2023-02-24T17:23:22.702Z,91.30
2023-02-24T17:25:56.708Z,83.65
2023-02-24T17:28:27.102Z,95.13
2023-02-24T17:30:55.627Z,92.82
2023-02-24T17:33:23.810Z,89.62
2023-02-24T17:35:51.727Z,96.30
2023-02-24T17:38:23.169Z,92.33
2023-02-24T17:40:51.281Z,89.37
2023-02-24T17:43:19.783Z,98.45
2023-02-24T17:45:48.685Z,87.75
2023-02-24T17:48:16.990Z,84.07
2023-02-24T17:51:05.225Z,84.97
2023-02-24T17:53:33.807Z,84.60
2023-02-24T17:56:04.743Z,81.05
2023-02-24T17:58:33.311Z,87.30
2023-02-24T18:01:02.646Z,91.37
2023-02-24T18:03:31.175Z,106.05
2023-02-24T18:06:07.276Z,91.67
2023-02-24T18:08:36.277Z,92.35
2023-02-24T18:11:05.192Z,92.50
2023-02-24T18:13:33.594Z,89.70
2023-02-24T18:16:05.156Z,83.52
2023-02-24T18:18:33.119Z,89.40
2023-02-24T18:21:05.696Z,83.65
2023-02-24T18:23:34.131Z,78.55
2023-02-24T18:26:03.738Z,85.17
2023-02-24T18:28:32.844Z,85.12
2023-02-24T18:31:01.356Z,84.95
2023-02-24T18:33:52.633Z,89.37
2023-02-24T18:36:20.729Z,83.95
2023-02-24T18:38:48.778Z,89.65
2023-02-24T18:41:29.808Z,83.55
2023-02-24T18:43:59.513Z,77.70
2023-02-24T18:46:28.093Z,86.47
2023-02-24T18:48:57.103Z,85.62
2023-02-24T18:51:28.852Z,83.20
2023-02-24T18:54:00.752Z,82.55
2023-02-24T18:56:31.468Z,79.42
2023-02-24T18:59:00.772Z,84.05
2023-02-24T19:01:35.493Z,89.55
2023-02-24T19:04:04.890Z,81.37
2023-02-24T19:06:38.459Z,81.50
2023-02-24T19:09:11.625Z,79.62
2023-02-24T19:11:53.642Z,86.40
2023-02-24T19:14:28.431Z,88.65
2023-02-24T19:17:17.403Z,78.15
2023-02-24T19:19:46.868Z,92.57
2023-02-24T19:22:16.394Z,88.95
2023-02-24T19:24:44.870Z,81.75
2023-02-24T19:27:13.308Z,79.35
2023-02-24T19:29:42.569Z,82.08
2023-02-24T19:32:11.391Z,76.75
2023-02-24T19:34:58.643Z,88.17
2023-02-24T19:37:26.833Z,83.75
2023-02-24T19:39:56.166Z,85.28
2023-02-24T19:42:25.170Z,82.42
2023-02-24T19:44:55.777Z,84.22
2023-02-24T19:47:23.767Z,82.47
2023-02-24T19:49:52.388Z,81.42
2023-02-24T19:52:20.502Z,83.12
2023-02-24T19:54:48.915Z,85.28
2023-02-24T19:57:16.856Z,89.20
2023-02-24T19:59:45.174Z,86.55
2023-02-24T20:02:13.956Z,87.02
2023-02-24T20:04:45.079Z,89.50
2023-02-24T20:07:15.336Z,84.35
2023-02-24T20:09:44.161Z,84.87
2023-02-24T20:12:12.307Z,88.12
2023-02-24T20:14:40.572Z,81.15
2023-02-24T20:17:09.462Z,84.77
2023-02-24T20:19:38.330Z,86.92
2023-02-24T20:22:08.816Z,79.37
2023-02-24T20:24:37.609Z,84.32
2023-02-24T20:27:08.880Z,95.17
2023-02-24T20:29:36.811Z,83.20
2023-02-24T20:32:04.873Z,95.72
2023-02-24T20:34:36.952Z,89.62
2023-02-24T20:37:06.788Z,91.12
2023-02-24T20:39:35.658Z,90.72
2023-02-24T20:42:06.420Z,90.57
2023-02-24T20:44:34.558Z,82.60
2023-02-24T20:47:02.572Z,84.77
2023-02-24T20:49:34.577Z,89.28
2023-02-24T20:52:01.961Z,91.42
2023-02-24T20:54:29.818Z,90.95
2023-02-24T20:56:57.660Z,89.62
2023-02-24T20:59:26.992Z,88.45
2023-02-24T21:01:55.030Z,86.50
2023-02-24T21:04:22.880Z,90.50
2023-02-24T21:06:52.181Z,91.47
2023-02-24T21:09:20.362Z,97.75
2023-02-24T21:11:47.987Z,89.03
2023-02-24T21:14:16.807Z,94.70
2023-02-24T21:16:46.474Z,87.78
2023-02-24T21:19:15.161Z,97.02
2023-02-24T21:21:42.972Z,96.87
2023-02-24T21:24:11.760Z,91.30
2023-02-24T21:26:39.840Z,88.30
2023-02-24T21:29:08.759Z,90.87
2023-02-24T21:31:36.805Z,91.28
2023-02-24T21:34:04.797Z,96.37
2023-02-24T21:36:32.272Z,96.90
2023-02-24T21:39:01.251Z,90.80
2023-02-24T21:41:29.700Z,92.67
2023-02-24T21:44:00.393Z,92.70
2023-02-24T21:46:28.962Z,92.35
2023-02-24T21:49:00.573Z,97.95
2023-02-24T21:51:29.533Z,89.70
2023-02-24T21:53:58.502Z,89.85
2023-02-24T21:56:30.125Z,95.57
2023-02-24T21:59:07.412Z,98.00
2023-02-24T22:01:45.981Z,96.17
2023-02-24T22:04:17.040Z,97.47
2023-02-24T22:06:46.916Z,97.92
2023-02-24T22:09:20.064Z,96.50
2023-02-24T22:11:49.056Z,94.50
2023-02-24T22:14:17.890Z,91.60
2023-02-24T22:16:46.385Z,87.97
2023-02-24T22:19:14.358Z,88.33
2023-02-24T22:21:44.347Z,87.75
2023-02-24T22:24:18.044Z,90.65
2023-02-24T22:26:49.159Z,88.47
2023-02-24T22:29:17.945Z,97.05
2023-02-24T22:31:49.800Z,104.80
2023-02-24T22:34:19.756Z,105.47
2023-02-24T22:36:53.829Z,103.78
2023-02-24T22:39:27.675Z,90.77
2023-02-24T22:41:55.800Z,89.23
2023-02-24T22:44:32.244Z,94.83
2023-02-24T22:47:02.551Z,100.38
2023-02-24T22:49:44.868Z,94.32
2023-02-24T22:52:18.595Z,89.00
2023-02-24T22:54:46.893Z,93.12
2023-02-24T22:57:14.640Z,94.05
2023-02-24T22:59:42.724Z,90.62
2023-02-24T23:02:10.377Z,91.37
2023-02-24T23:04:50.440Z,95.12
2023-02-24T23:07:39.233Z,90.35
2023-02-24T23:10:09.900Z,91.40
2023-02-24T23:12:37.983Z,95.85
2023-02-24T23:15:06.763Z,85.80
2023-02-24T23:17:35.200Z,92.97
2023-02-24T23:20:23.063Z,98.35
2023-02-24T23:22:57.304Z,89.97
2023-02-24T23:25:25.316Z,94.83
2023-02-24T23:27:54.471Z,91.78
2023-02-24T23:30:26.602Z,101.90
2023-02-24T23:32:54.463Z,97.82
2023-02-24T23:35:22.697Z,92.08
2023-02-24T23:37:51.843Z,88.47
2023-02-24T23:40:23.029Z,92.17
2023-02-24T23:42:51.658Z,88.67
2023-02-24T23:45:19.960Z,88.87
2023-02-24T23:47:48.010Z,91.92
2023-02-24T23:50:20.732Z,88.10
2023-02-24T23:52:55.429Z,93.70
2023-02-24T23:55:23.850Z,86.05
2023-02-24T23:57:54.814Z,95.87
